Time;durP1;ratioP1;P1;durP2;ratioP2;P2;SDS_P1;SDS_P2;PMS_P1;PMS_P2;Temp;Humidity;BMP_temperature;BMP_pressure;BME280_temperature;BME280_humidity;BME280_pressure;Samples;Min_cycle;Max_cycle;Signal;HPM_P1;HPM_P2
2024/02/27 00:02:14;;;;;;;14.95;5.22;;;3.30;99.90;;;;;;4937530;29;20039;-95
2024/02/27 00:04:45;;;;;;;12.05;4.68;;;2.30;99.90;;;;;;4937313;29;20103;-95
2024/02/27 00:07:13;;;;;;;10.70;4.80;;;2.30;99.90;;;;;;4922601;29;20431;-95
2024/02/27 00:09:46;;;;;;;11.95;5.03;;;2.30;99.90;;;;;;4942344;29;20042;-95
2024/02/27 00:12:14;;;;;;;12.07;4.95;;;2.30;99.90;;;;;;4943229;29;20036;-96
2024/02/27 00:14:40;;;;;;;9.95;4.97;;;2.30;99.90;;;;;;4939428;29;20095;-95
2024/02/27 00:17:07;;;;;;;10.75;5.10;;;3.60;99.90;;;;;;4953840;29;20051;-94
2024/02/27 00:19:36;;;;;;;11.02;4.90;;;3.50;99.90;;;;;;4950282;29;20043;-96
2024/02/27 00:22:02;;;;;;;8.00;4.32;;;2.10;99.90;;;;;;4924933;29;20036;-96
2024/02/27 00:24:29;;;;;;;10.18;5.43;;;2.10;99.90;;;;;;4935008;29;20040;-96
2024/02/27 00:26:56;;;;;;;10.13;5.10;;;2.00;99.90;;;;;;4936447;29;20051;-95
2024/02/27 00:29:22;;;;;;;9.57;5.13;;;2.40;99.90;;;;;;4940898;29;20043;-95
2024/02/27 00:31:49;;;;;;;12.85;5.20;;;2.00;99.90;;;;;;4941066;29;20036;-96
2024/02/27 00:34:16;;;;;;;12.68;4.82;;;1.90;99.90;;;;;;4940709;29;20052;-95
2024/02/27 00:36:42;;;;;;;10.18;4.63;;;2.70;99.90;;;;;;4940858;29;20115;-94
2024/02/27 00:39:09;;;;;;;17.63;4.97;;;1.80;99.90;;;;;;4940961;29;20039;-96
2024/02/27 00:41:40;;;;;;;11.75;5.25;;;1.90;99.90;;;;;;4940764;29;20050;-96
2024/02/27 00:44:07;;;;;;;9.95;5.25;;;1.80;99.90;;;;;;4938907;29;20556;-95
2024/02/27 00:46:36;;;;;;;10.10;5.28;;;1.80;99.90;;;;;;4940317;29;20985;-96
2024/02/27 00:49:02;;;;;;;10.40;4.72;;;1.70;99.90;;;;;;4940527;29;20071;-95
2024/02/27 00:51:29;;;;;;;11.00;4.93;;;1.70;99.90;;;;;;4940808;29;20071;-95
2024/02/27 00:53:56;;;;;;;9.70;5.38;;;2.80;99.90;;;;;;4940492;29;20038;-96
2024/02/27 00:56:24;;;;;;;13.52;5.43;;;1.70;99.90;;;;;;4940503;29;20556;-94
2024/02/27 00:58:50;;;;;;;15.45;6.03;;;2.20;99.90;;;;;;4952515;29;20135;-96
2024/02/27 01:01:17;;;;;;;11.63;5.60;;;2.10;99.90;;;;;;4930127;29;20044;-95
2024/02/27 01:03:44;;;;;;;9.80;5.45;;;1.60;99.90;;;;;;4938984;29;20508;-96
2024/02/27 01:06:12;;;;;;;14.15;6.13;;;1.60;99.90;;;;;;4928833;29;20036;-94
2024/02/27 01:08:41;;;;;;;11.57;5.40;;;2.80;99.90;;;;;;4926139;29;20044;-95
2024/02/27 01:11:07;;;;;;;11.45;5.57;;;2.80;99.90;;;;;;4933843;29;20047;-96
2024/02/27 01:13:34;;;;;;;14.23;5.93;;;2.00;99.90;;;;;;4940185;29;20405;-96
2024/02/27 01:16:01;;;;;;;12.70;6.57;;;1.50;99.90;;;;;;4935538;29;20493;-96
2024/02/27 01:18:27;;;;;;;11.70;5.95;;;1.50;99.90;;;;;;4940516;29;20050;-95
2024/02/27 01:20:54;;;;;;;12.60;5.80;;;1.50;99.90;;;;;;4938410;29;20044;-96
2024/02/27 01:23:21;;;;;;;14.20;5.93;;;1.50;99.90;;;;;;4941249;29;20122;-95
2024/02/27 01:25:47;;;;;;;13.60;5.93;;;1.60;99.90;;;;;;4927379;29;20051;-96
2024/02/27 01:28:14;;;;;;;13.57;6.35;;;1.60;99.90;;;;;;4939928;29;20035;-95
2024/02/27 01:30:40;;;;;;;13.43;6.15;;;1.70;99.90;;;;;;4931672;29;20039;-96
2024/02/27 01:33:07;;;;;;;16.92;6.63;;;1.70;99.90;;;;;;4928891;29;20486;-95
2024/02/27 01:35:34;;;;;;;11.52;6.32;;;1.70;99.90;;;;;;4924618;29;20050;-96
2024/02/27 01:38:00;;;;;;;14.15;6.57;;;1.80;99.90;;;;;;4937218;29;20083;-96
2024/02/27 01:40:27;;;;;;;17.17;7.18;;;1.90;99.90;;;;;;4936689;29;20055;-95
2024/02/27 01:42:54;;;;;;;18.10;6.55;;;2.80;99.90;;;;;;4933932;29;20519;-96
2024/02/27 01:45:23;;;;;;;15.40;6.75;;;1.80;99.90;;;;;;4939947;29;20047;-96
2024/02/27 01:47:52;;;;;;;18.08;6.85;;;2.70;99.90;;;;;;4939455;29;20043;-95
2024/02/27 01:50:20;;;;;;;15.90;6.85;;;1.80;99.90;;;;;;4938582;29;20043;-95
2024/02/27 01:52:47;;;;;;;20.08;6.80;;;1.90;99.90;;;;;;4927805;29;20896;-95
2024/02/27 01:55:14;;;;;;;18.05;6.93;;;2.90;99.90;;;;;;4939458;29;20148;-96
2024/02/27 01:57:41;;;;;;;16.60;6.55;;;2.10;99.90;;;;;;4939483;29;20099;-96
2024/02/27 02:00:09;;;;;;;13.88;6.80;;;1.90;99.90;;;;;;4939591;29;20042;-96
2024/02/27 02:02:37;;;;;;;16.33;6.45;;;1.90;99.90;;;;;;4939081;29;20449;-96
2024/02/27 02:05:07;;;;;;;17.10;6.63;;;1.90;99.90;;;;;;4936086;29;20055;-96
2024/02/27 02:07:35;;;;;;;15.02;6.75;;;1.80;99.90;;;;;;4923411;29;20135;-96
2024/02/27 02:10:02;;;;;;;19.10;7.00;;;1.80;99.90;;;;;;4936597;29;20118;-94
2024/02/27 02:12:29;;;;;;;13.63;6.32;;;1.70;99.90;;;;;;4939107;29;20123;-96
2024/02/27 02:14:55;;;;;;;13.73;6.93;;;2.90;99.90;;;;;;4939322;29;20046;-95
2024/02/27 02:17:22;;;;;;;14.55;6.40;;;1.70;99.90;;;;;;4935694;29;20131;-96
2024/02/27 02:19:49;;;;;;;15.45;6.25;;;1.60;99.90;;;;;;4959418;29;20039;-96
2024/02/27 02:22:15;;;;;;;13.57;6.88;;;1.60;99.90;;;;;;4939219;29;20043;-96
2024/02/27 02:24:42;;;;;;;16.00;6.85;;;2.80;99.90;;;;;;4939072;29;20513;-96
2024/02/27 02:27:12;;;;;;;14.65;6.60;;;1.50;99.90;;;;;;4938467;29;20055;-96
2024/02/27 02:29:38;;;;;;;17.67;6.40;;;1.50;99.90;;;;;;4920023;29;20371;-96
2024/02/27 02:32:05;;;;;;;13.85;6.18;;;2.60;99.90;;;;;;4932586;29;20122;-94
2024/02/27 02:34:32;;;;;;;14.32;5.88;;;1.50;99.90;;;;;;4919738;29;20107;-96
2024/02/27 02:36:58;;;;;;;14.90;6.28;;;1.50;99.90;;;;;;4933445;29;20130;-96
2024/02/27 02:39:25;;;;;;;11.93;6.22;;;1.60;99.90;;;;;;4938761;29;20051;-96
2024/02/27 02:41:52;;;;;;;14.50;6.60;;;1.60;99.90;;;;;;4936986;29;20084;-96
2024/02/27 02:44:18;;;;;;;14.77;6.82;;;1.40;99.90;;;;;;4951179;29;20088;-96
2024/02/27 02:46:45;;;;;;;15.20;6.47;;;1.40;99.90;;;;;;4930494;29;20417;-96
2024/02/27 02:49:12;;;;;;;12.73;6.60;;;1.40;99.90;;;;;;4935405;29;20043;-94
2024/02/27 02:51:38;;;;;;;13.75;5.93;;;1.30;99.90;;;;;;4942727;29;20071;-96
2024/02/27 02:54:05;;;;;;;17.42;6.88;;;1.80;99.90;;;;;;4937095;29;20035;-96
2024/02/27 02:56:32;;;;;;;12.10;6.20;;;1.30;99.90;;;;;;4934767;29;20102;-95
2024/02/27 02:58:58;;;;;;;14.48;6.75;;;1.30;99.90;;;;;;4935310;29;20063;-96
2024/02/27 03:01:25;;;;;;;15.52;6.20;;;1.20;99.90;;;;;;4932146;29;20044;-96
2024/02/27 03:03:51;;;;;;;14.93;7.05;;;1.20;99.90;;;;;;4938153;29;20044;-96
2024/02/27 03:06:18;;;;;;;14.73;6.95;;;1.20;99.90;;;;;;4935680;29;20040;-95
2024/02/27 03:08:46;;;;;;;17.02;7.03;;;2.00;99.90;;;;;;4921854;29;20493;-96
2024/02/27 03:11:17;;;;;;;15.75;6.63;;;1.10;99.90;;;;;;4937943;29;20074;-96
2024/02/27 03:13:45;;;;;;;14.02;6.70;;;2.20;99.90;;;;;;4925708;29;20032;-94
2024/02/27 03:16:11;;;;;;;15.63;7.10;;;1.10;99.90;;;;;;4931630;29;20040;-95
2024/02/27 03:18:38;;;;;;;14.60;6.75;;;1.10;99.90;;;;;;4938081;29;20043;-96
2024/02/27 03:21:05;;;;;;;14.95;6.95;;;1.10;99.90;;;;;;4938509;29;20040;-96
2024/02/27 03:23:31;;;;;;;13.27;6.38;;;1.10;99.90;;;;;;4934412;29;20872;-96
2024/02/27 03:25:58;;;;;;;15.43;6.28;;;1.10;99.90;;;;;;4942640;29;20060;-95
2024/02/27 03:28:24;;;;;;;17.02;6.68;;;1.00;99.90;;;;;;4937965;29;20501;-96
2024/02/27 03:30:51;;;;;;;18.02;7.32;;;1.10;99.90;;;;;;4937814;29;20089;-96
2024/02/27 03:33:17;;;;;;;17.35;7.82;;;1.10;99.90;;;;;;4938116;29;20047;-95
2024/02/27 03:35:44;;;;;;;12.60;6.50;;;1.10;99.90;;;;;;4955480;29;20490;-96
2024/02/27 03:38:11;;;;;;;13.93;6.70;;;1.00;99.90;;;;;;4942570;29;20043;-96
2024/02/27 03:40:37;;;;;;;14.15;6.53;;;1.10;99.90;;;;;;4938184;29;20048;-96
2024/02/27 03:43:04;;;;;;;14.32;7.00;;;1.10;99.90;;;;;;4937806;29;20043;-96
2024/02/27 03:45:30;;;;;;;15.75;6.55;;;1.10;99.90;;;;;;4937012;29;20083;-96
2024/02/27 03:47:57;;;;;;;16.58;6.07;;;1.20;99.90;;;;;;4927294;29;20126;-96
2024/02/27 03:50:24;;;;;;;15.50;6.50;;;1.30;99.90;;;;;;4940393;29;20477;-96
2024/02/27 03:52:50;;;;;;;13.75;6.78;;;1.30;99.90;;;;;;4922707;29;20070;-96
2024/02/27 03:55:17;;;;;;;16.48;6.68;;;1.40;99.90;;;;;;4936614;29;20042;-96
2024/02/27 03:57:43;;;;;;;16.55;7.10;;;1.40;99.90;;;;;;4941847;29;20075;-95
2024/02/27 04:00:11;;;;;;;20.17;7.75;;;1.50;99.90;;;;;;4941273;29;20043;-96
2024/02/27 04:02:38;;;;;;;19.15;7.00;;;1.60;99.90;;;;;;4938624;29;20047;-96
2024/02/27 04:05:08;;;;;;;16.52;6.78;;;1.70;99.90;;;;;;4938602;29;20093;-96
2024/02/27 04:07:34;;;;;;;15.73;7.28;;;1.70;99.90;;;;;;4941336;29;20047;-96
2024/02/27 04:10:01;;;;;;;18.95;7.00;;;1.70;99.90;;;;;;4941435;29;20043;-96
2024/02/27 04:12:28;;;;;;;16.10;7.15;;;1.80;99.90;;;;;;4941668;29;20095;-96
2024/02/27 04:14:54;;;;;;;18.42;7.18;;;2.60;99.90;;;;;;4941304;29;20249;-96
2024/02/27 04:17:21;;;;;;;26.05;7.90;;;1.80;99.90;;;;;;4941094;29;20043;-96
2024/02/27 04:19:48;;;;;;;17.80;6.93;;;1.90;99.90;;;;;;4941019;29;20051;-96
2024/02/27 04:22:14;;;;;;;14.57;6.80;;;1.90;99.90;;;;;;4941176;29;20044;-96
2024/02/27 04:24:41;;;;;;;17.40;7.53;;;2.30;99.90;;;;;;4940998;29;20039;-96
2024/02/27 04:27:07;;;;;;;14.68;6.85;;;1.80;99.90;;;;;;4941324;29;20441;-96
2024/02/27 04:29:34;;;;;;;22.50;7.05;;;2.00;99.90;;;;;;4940110;29;20044;-96
2024/02/27 04:32:01;;;;;;;20.35;7.82;;;2.20;99.90;;;;;;4941409;29;20042;-96
2024/02/27 04:34:27;;;;;;;20.52;6.82;;;2.10;99.90;;;;;;4940854;29;20165;-96
2024/02/27 04:36:56;;;;;;;22.02;7.50;;;2.80;99.90;;;;;;4940856;29;20049;-96
2024/02/27 04:39:23;;;;;;;14.85;6.85;;;2.20;99.90;;;;;;4940923;29;20058;-96
2024/02/27 04:41:49;;;;;;;17.65;7.25;;;3.00;99.90;;;;;;4956926;29;20127;-96
2024/02/27 04:44:19;;;;;;;18.80;7.45;;;2.40;99.90;;;;;;4940813;29;20039;-96
2024/02/27 04:46:46;;;;;;;17.67;7.40;;;3.60;99.90;;;;;;4940645;29;20414;-96
2024/02/27 04:49:13;;;;;;;20.35;7.80;;;3.20;99.90;;;;;;4940712;29;20040;-96
2024/02/27 04:51:40;;;;;;;16.33;7.82;;;2.50;99.90;;;;;;4941031;29;20390;-96
2024/02/27 04:54:06;;;;;;;22.52;8.05;;;2.50;99.90;;;;;;4940405;29;20035;-96
2024/02/27 04:56:33;;;;;;;17.73;7.65;;;2.60;99.90;;;;;;4936779;29;20064;-95
2024/02/27 04:59:00;;;;;;;14.70;7.65;;;3.40;99.90;;;;;;4940048;29;20054;-96
2024/02/27 05:01:27;;;;;;;18.55;7.25;;;2.60;99.90;;;;;;4939911;29;20787;-96
2024/02/27 05:03:54;;;;;;;17.35;7.05;;;2.60;99.90;;;;;;4934423;29;20036;-96
2024/02/27 05:06:20;;;;;;;20.60;8.02;;;2.70;99.90;;;;;;4934024;29;20485;-96
2024/02/27 05:08:49;;;;;;;19.35;8.48;;;2.70;99.90;;;;;;4940430;29;20039;-95
2024/02/27 05:11:16;;;;;;;16.75;8.43;;;2.80;99.90;;;;;;4940047;29;20617;-95
2024/02/27 05:13:43;;;;;;;16.88;7.72;;;2.80;99.90;;;;;;4948861;29;20130;-96
2024/02/27 05:16:10;;;;;;;19.27;8.10;;;2.90;99.90;;;;;;4936094;29;21394;-96
2024/02/27 05:18:39;;;;;;;16.13;7.78;;;3.70;99.90;;;;;;4940034;29;20043;-95
2024/02/27 05:21:06;;;;;;;19.02;7.57;;;3.50;99.90;;;;;;4949596;29;20055;-95
2024/02/27 05:23:33;;;;;;;15.55;7.13;;;4.30;99.90;;;;;;4937714;29;20044;-96
2024/02/27 05:26:00;;;;;;;16.13;7.32;;;3.00;99.90;;;;;;4937631;29;20146;-96
2024/02/27 05:28:29;;;;;;;18.30;7.75;;;4.40;99.90;;;;;;4940042;29;20118;-96
2024/02/27 05:30:56;;;;;;;18.75;8.07;;;3.00;99.90;;;;;;4936422;29;20044;-96
2024/02/27 05:33:22;;;;;;;22.02;8.30;;;3.10;99.90;;;;;;4932423;29;20043;-95
2024/02/27 05:35:49;;;;;;;15.75;8.05;;;4.00;99.90;;;;;;4936701;29;20405;-96
2024/02/27 05:38:15;;;;;;;19.45;8.52;;;3.10;99.90;;;;;;4928221;29;20100;-96
2024/02/27 05:40:42;;;;;;;14.57;7.25;;;3.10;99.90;;;;;;4939799;29;20043;-94
2024/02/27 05:43:10;;;;;;;18.13;8.38;;;4.20;99.90;;;;;;4939902;29;20489;-96
2024/02/27 05:45:36;;;;;;;17.55;8.40;;;3.20;99.90;;;;;;4954903;29;20087;-95
2024/02/27 05:48:03;;;;;;;17.45;8.50;;;3.20;99.90;;;;;;4939697;29;20468;-95
2024/02/27 05:50:30;;;;;;;19.02;8.60;;;3.20;99.90;;;;;;4936492;29;20094;-96
2024/02/27 05:52:56;;;;;;;15.23;8.32;;;3.30;99.90;;;;;;4929586;29;20048;-96
2024/02/27 05:55:23;;;;;;;16.13;8.70;;;3.80;99.90;;;;;;4939509;29;20031;-95
2024/02/27 05:57:50;;;;;;;21.58;9.57;;;3.30;99.90;;;;;;4930431;29;20051;-96
2024/02/27 06:00:17;;;;;;;17.60;9.15;;;4.40;99.90;;;;;;4938281;29;20039;-95
2024/02/27 06:02:43;;;;;;;17.38;9.02;;;3.30;99.90;;;;;;4939759;29;20054;-96
2024/02/27 06:05:10;;;;;;;18.15;8.95;;;4.20;99.90;;;;;;4938878;29;20126;-96
2024/02/27 06:07:37;;;;;;;22.73;9.52;;;3.40;99.90;;;;;;4939586;29;20394;-96
2024/02/27 06:10:04;;;;;;;20.05;8.55;;;4.00;99.90;;;;;;4939009;29;20087;-96
2024/02/27 06:12:30;;;;;;;18.75;9.02;;;3.40;99.90;;;;;;4939404;29;20489;-95
2024/02/27 06:14:57;;;;;;;23.52;9.25;;;4.20;99.90;;;;;;4939128;29;20043;-95
2024/02/27 06:17:23;;;;;;;19.85;8.93;;;4.20;99.90;;;;;;4942624;29;20486;-95
2024/02/27 06:19:55;;;;;;;21.02;9.20;;;4.00;99.90;;;;;;4926843;29;20059;-95
2024/02/27 06:22:23;;;;;;;16.05;8.93;;;4.50;99.90;;;;;;4938235;29;20040;-96
2024/02/27 06:24:50;;;;;;;15.93;8.43;;;3.30;99.90;;;;;;4927447;29;20217;-96
2024/02/27 06:27:17;;;;;;;16.83;8.77;;;3.40;99.90;;;;;;4938636;29;20626;-95
2024/02/27 06:29:43;;;;;;;15.95;8.90;;;3.50;99.90;;;;;;4938331;29;20111;-96
2024/02/27 06:32:10;;;;;;;15.75;8.57;;;4.60;99.90;;;;;;4937140;29;20047;-96
2024/02/27 06:34:38;;;;;;;18.15;9.25;;;3.40;99.90;;;;;;4938713;29;20062;-95
2024/02/27 06:37:07;;;;;;;18.27;9.15;;;3.50;99.90;;;;;;4935824;29;20048;-95
2024/02/27 06:39:34;;;;;;;18.65;9.32;;;4.40;99.90;;;;;;4928137;29;20123;-96
2024/02/27 06:42:03;;;;;;;14.50;8.07;;;3.50;99.90;;;;;;4931083;29;20067;-96
2024/02/27 06:44:30;;;;;;;13.95;7.75;;;4.50;99.90;;;;;;4935304;29;20134;-96
2024/02/27 06:46:56;;;;;;;18.52;7.97;;;3.50;99.90;;;;;;4934306;29;20127;-96
2024/02/27 06:49:23;;;;;;;14.77;7.65;;;3.50;99.90;;;;;;4936775;29;20057;-95
2024/02/27 06:51:50;;;;;;;19.55;8.57;;;4.40;99.90;;;;;;4953918;29;20130;-95
2024/02/27 06:54:17;;;;;;;15.57;8.32;;;3.50;99.90;;;;;;4938732;29;20044;-96
2024/02/27 06:56:44;;;;;;;13.98;6.65;;;4.00;99.90;;;;;;4938450;29;20494;-95
2024/02/27 06:59:11;;;;;;;13.20;7.53;;;3.70;99.90;;;;;;4938182;29;20092;-96
2024/02/27 07:01:37;;;;;;;13.60;8.23;;;3.60;99.90;;;;;;4938519;29;20032;-96
2024/02/27 07:04:04;;;;;;;11.68;6.78;;;4.20;99.90;;;;;;4939322;29;20087;-95
2024/02/27 07:06:30;;;;;;;11.82;6.72;;;3.70;99.90;;;;;;4937551;29;20520;-96
2024/02/27 07:08:58;;;;;;;12.18;6.85;;;3.70;99.90;;;;;;4937906;29;20504;-96
2024/02/27 07:11:26;;;;;;;12.98;6.35;;;3.70;99.90;;;;;;4954256;29;20044;-96
2024/02/27 07:13:53;;;;;;;12.98;6.55;;;4.00;99.90;;;;;;4938387;29;20082;-95
2024/02/27 07:16:19;;;;;;;13.00;6.55;;;4.90;99.90;;;;;;4934312;29;20079;-96
2024/02/27 07:18:47;;;;;;;12.90;6.95;;;3.70;99.90;;;;;;4933485;29;20071;-95
2024/02/27 07:21:14;;;;;;;12.80;6.60;;;3.80;99.90;;;;;;4935757;29;20046;-96
2024/02/27 07:23:41;;;;;;;9.45;5.63;;;5.00;99.90;;;;;;4937690;29;21702;-95
2024/02/27 07:26:07;;;;;;;11.55;6.38;;;3.80;99.90;;;;;;4938080;29;20126;-96
2024/02/27 07:28:34;;;;;;;11.40;6.40;;;3.80;99.90;;;;;;4929706;29;20044;-96
2024/02/27 07:31:01;;;;;;;11.73;6.75;;;3.80;99.90;;;;;;4928821;29;20044;-95
2024/02/27 07:33:27;;;;;;;12.70;6.40;;;3.80;99.90;;;;;;4937631;29;20055;-95
2024/02/27 07:35:54;;;;;;;14.23;6.43;;;4.00;99.90;;;;;;4937817;29;20456;-94
2024/02/27 07:38:21;;;;;;;11.30;6.15;;;3.90;99.90;;;;;;4937607;29;20050;-94
2024/02/27 07:40:50;;;;;;;12.32;6.35;;;4.90;99.90;;;;;;4937150;29;20039;-94
2024/02/27 07:43:17;;;;;;;12.82;6.53;;;3.80;99.90;;;;;;4937859;29;20042;-95
2024/02/27 07:45:44;;;;;;;13.93;6.82;;;3.90;99.90;;;;;;4938557;29;20052;-95
2024/02/27 07:48:10;;;;;;;10.13;6.22;;;3.90;99.90;;;;;;4937404;29;20126;-96
2024/02/27 07:50:37;;;;;;;10.20;6.47;;;4.60;99.90;;;;;;4953727;29;20035;-94
2024/02/27 07:53:04;;;;;;;10.93;6.43;;;3.90;99.90;;;;;;4937271;29;20036;-96
2024/02/27 07:55:30;;;;;;;10.27;6.10;;;5.30;99.90;;;;;;4933401;29;20036;-96
2024/02/27 07:57:57;;;;;;;13.02;7.03;;;4.60;99.90;;;;;;4939663;29;20083;-96
2024/02/27 08:00:24;;;;;;;11.05;6.57;;;3.90;99.90;;;;;;4935092;29;20091;-96
2024/02/27 08:02:51;;;;;;;9.70;5.93;;;5.30;99.90;;;;;;4934583;29;20051;-96
2024/02/27 08:05:20;;;;;;;12.10;6.22;;;4.90;99.90;;;;;;4937550;29;20059;-96
2024/02/27 08:07:47;;;;;;;11.38;7.05;;;4.30;99.90;;;;;;4937141;29;20052;-96
2024/02/27 08:10:14;;;;;;;11.25;6.97;;;4.50;99.90;;;;;;4937538;29;20039;-96
2024/02/27 08:12:41;;;;;;;11.25;6.65;;;4.90;99.90;;;;;;4937349;29;20508;-96
2024/02/27 08:15:08;;;;;;;10.98;7.28;;;5.00;99.90;;;;;;4935834;29;20087;-96
2024/02/27 08:17:34;;;;;;;15.98;6.78;;;3.90;99.90;;;;;;4952154;29;20051;-96
2024/02/27 08:20:01;;;;;;;13.25;7.18;;;4.00;99.90;;;;;;4935625;29;20036;-96
2024/02/27 08:22:28;;;;;;;12.95;6.60;;;4.00;99.90;;;;;;4937225;29;20556;-96
2024/02/27 08:24:55;;;;;;;13.13;7.10;;;3.80;99.90;;;;;;4937507;29;20048;-96
2024/02/27 08:27:21;;;;;;;10.98;6.57;;;4.00;99.90;;;;;;4935738;29;20040;-96
2024/02/27 08:29:48;;;;;;;10.45;6.28;;;4.80;99.90;;;;;;4937459;29;20036;-96
2024/02/27 08:32:14;;;;;;;12.02;6.97;;;5.30;99.90;;;;;;4949430;29;20033;-96
2024/02/27 08:34:41;;;;;;;12.07;7.40;;;4.00;99.90;;;;;;4929814;29;20056;-96
2024/02/27 08:37:08;;;;;;;12.60;7.60;;;4.00;99.90;;;;;;4940127;29;20035;-96
2024/02/27 08:39:34;;;;;;;15.70;7.60;;;4.00;99.90;;;;;;4938629;29;20044;-96
2024/02/27 08:42:01;;;;;;;14.43;7.97;;;5.10;99.90;;;;;;4956188;29;20055;-92
2024/02/27 08:44:30;;;;;;;13.77;7.43;;;4.00;99.90;;;;;;4937588;29;20426;-95
2024/02/27 08:46:59;;;;;;;15.82;8.52;;;4.00;99.90;;;;;;4940880;29;20040;-95
2024/02/27 08:49:25;;;;;;;13.07;8.45;;;4.10;99.90;;;;;;4953960;29;20151;-96
2024/02/27 08:51:52;;;;;;;13.25;8.18;;;5.10;99.90;;;;;;4941293;29;20039;-93
2024/02/27 08:54:19;;;;;;;11.85;7.63;;;5.30;99.90;;;;;;4954912;29;20038;-95
2024/02/27 08:56:45;;;;;;;15.82;8.32;;;5.10;99.90;;;;;;4937674;29;20040;-96
2024/02/27 08:59:12;;;;;;;14.75;8.52;;;4.20;99.90;;;;;;4928300;29;20042;-96
2024/02/27 09:01:39;;;;;;;14.43;8.50;;;4.10;99.90;;;;;;4945120;29;20083;-94
2024/02/27 09:04:05;;;;;;;16.27;8.20;;;4.10;99.90;;;;;;4939075;29;20054;-95
2024/02/27 09:06:32;;;;;;;14.15;8.65;;;3.90;99.90;;;;;;4940656;29;20043;-95
2024/02/27 09:08:58;;;;;;;13.82;8.05;;;4.50;99.90;;;;;;4939719;29;20044;-95
2024/02/27 09:11:25;;;;;;;14.02;8.35;;;4.20;99.90;;;;;;4940345;29;20055;-94
2024/02/27 09:13:52;;;;;;;12.73;7.22;;;5.10;99.90;;;;;;4941490;29;20063;-96
2024/02/27 09:16:18;;;;;;;12.40;7.75;;;5.00;99.90;;;;;;4940200;29;20032;-95
2024/02/27 09:18:45;;;;;;;12.18;7.35;;;5.30;99.90;;;;;;4940277;29;20095;-95
2024/02/27 09:21:12;;;;;;;11.07;6.72;;;5.40;99.90;;;;;;4946342;29;20097;-95
2024/02/27 09:23:38;;;;;;;11.45;7.10;;;4.20;99.90;;;;;;4941693;29;20054;-94
2024/02/27 09:26:05;;;;;;;10.75;6.60;;;4.20;99.90;;;;;;4933233;29;20044;-96
2024/02/27 09:28:32;;;;;;;13.15;7.18;;;4.40;99.90;;;;;;4939509;29;20163;-95
2024/02/27 09:31:04;;;;;;;13.05;6.78;;;5.10;99.90;;;;;;4939651;29;20162;-95
2024/02/27 09:33:31;;;;;;;13.65;7.90;;;4.10;99.90;;;;;;4954840;29;20059;-96
2024/02/27 09:35:58;;;;;;;18.17;9.15;;;4.80;99.90;;;;;;4940039;29;20400;-96
2024/02/27 09:38:25;;;;;;;15.07;8.10;;;4.00;99.90;;;;;;4943226;29;20044;-90
2024/02/27 09:40:55;;;;;;;14.68;8.63;;;4.90;99.90;;;;;;4944094;29;20589;-96
2024/02/27 09:43:30;;;;;;;16.55;8.82;;;4.20;99.90;;;;;;4939759;29;20047;-95
2024/02/27 09:45:58;;;;;;;15.25;8.93;;;4.60;99.90;;;;;;4939035;29;20039;-96
2024/02/27 09:48:28;;;;;;;15.63;8.80;;;4.90;99.90;;;;;;4936089;29;20043;-96
2024/02/27 09:50:57;;;;;;;14.00;7.80;;;5.60;99.90;;;;;;4925525;29;20076;-96
2024/02/27 09:53:24;;;;;;;14.70;8.02;;;;;;;;;;4939376;29;20043;-95
2024/02/27 09:55:51;;;;;;;15.40;8.32;;;4.20;99.90;;;;;;4938790;29;21202;-96
2024/02/27 09:58:19;;;;;;;16.63;8.75;;;4.40;99.90;;;;;;4935579;29;20123;-96
2024/02/27 10:00:46;;;;;;;19.73;9.20;;;4.20;99.90;;;;;;4928666;29;20040;-96
2024/02/27 10:03:14;;;;;;;17.38;9.38;;;4.30;99.90;;;;;;4938715;29;20042;-96
2024/02/27 10:05:42;;;;;;;18.35;9.13;;;5.40;99.90;;;;;;4938820;29;20397;-96
2024/02/27 10:08:19;;;;;;;18.90;9.32;;;5.70;99.90;;;;;;4938580;29;20043;-96
2024/02/27 10:10:47;;;;;;;17.00;9.45;;;5.60;99.90;;;;;;4939179;29;20058;-96
2024/02/27 10:13:14;;;;;;;13.70;8.48;;;5.60;99.90;;;;;;4939479;29;20032;-96
2024/02/27 10:15:43;;;;;;;18.42;9.57;;;4.90;99.90;;;;;;4938619;29;20048;-96
2024/02/27 10:18:10;;;;;;;17.38;9.82;;;4.00;99.90;;;;;;4939148;29;20073;-96
2024/02/27 10:20:41;;;;;;;19.25;10.00;;;5.70;99.90;;;;;;4939082;29;20130;-96
2024/02/27 10:23:07;;;;;;;17.58;9.35;;;5.60;99.90;;;;;;4945490;29;20047;-93
2024/02/27 10:25:34;;;;;;;21.20;10.65;;;5.80;99.90;;;;;;4938917;29;20516;-96
2024/02/27 10:28:01;;;;;;;18.38;9.63;;;4.70;99.90;;;;;;4938765;29;20051;-96
2024/02/27 10:30:28;;;;;;;19.55;10.05;;;4.60;99.90;;;;;;4939174;29;20046;-96
2024/02/27 10:32:54;;;;;;;19.90;10.27;;;5.30;99.90;;;;;;4937706;29;20051;-96
2024/02/27 10:35:23;;;;;;;21.05;11.23;;;5.20;99.90;;;;;;4945031;29;20051;-96
2024/02/27 10:37:52;;;;;;;20.35;10.55;;;4.70;99.90;;;;;;4931349;29;20052;-96
2024/02/27 10:40:19;;;;;;;19.48;10.48;;;5.00;99.90;;;;;;4935275;29;20036;-96
2024/02/27 10:42:47;;;;;;;21.17;10.48;;;5.90;99.90;;;;;;4938732;29;20442;-96
2024/02/27 10:45:15;;;;;;;20.80;10.35;;;5.90;99.90;;;;;;4938593;29;20047;-96
2024/02/27 10:47:43;;;;;;;21.88;10.07;;;5.20;99.90;;;;;;4924302;29;20548;-95
2024/02/27 10:50:11;;;;;;;18.52;10.10;;;5.90;99.90;;;;;;4938388;29;20131;-95
2024/02/27 10:52:41;;;;;;;18.00;9.65;;;4.70;99.90;;;;;;4936032;29;20390;-94
2024/02/27 10:55:10;;;;;;;20.40;10.32;;;5.10;99.90;;;;;;4942391;29;20449;-94
2024/02/27 10:57:38;;;;;;;21.33;11.13;;;5.30;99.90;;;;;;4936082;29;20493;-94
2024/02/27 11:00:05;;;;;;;19.40;10.45;;;4.80;99.90;;;;;;4937984;29;20047;-95
2024/02/27 11:02:38;;;;;;;20.35;10.82;;;4.70;99.90;;;;;;4938247;29;20043;-94
2024/02/27 11:05:05;;;;;;;23.48;10.98;;;5.20;99.90;;;;;;4937717;29;20136;-94
2024/02/27 11:07:32;;;;;;;20.40;10.63;;;4.80;99.90;;;;;;4935802;29;20086;-94
2024/02/27 11:10:36;;;;;;;19.30;10.57;;;4.90;99.90;;;;;;4936163;29;20254;-94
2024/02/27 11:13:06;;;;;;;19.27;10.95;;;4.90;99.90;;;;;;4948174;29;20058;-94
2024/02/27 11:15:34;;;;;;;21.65;10.77;;;6.20;99.90;;;;;;4936861;29;20040;-94
2024/02/27 11:18:03;;;;;;;19.98;10.88;;;5.80;99.90;;;;;;4950475;29;20561;-95
2024/02/27 11:20:30;;;;;;;20.13;10.88;;;5.00;99.90;;;;;;4930279;29;20571;-96
2024/02/27 11:22:58;;;;;;;20.67;11.15;;;5.90;99.90;;;;;;4932736;29;20098;-96
2024/02/27 11:25:25;;;;;;;20.13;10.25;;;5.70;99.90;;;;;;4931057;29;20051;-95
2024/02/27 11:27:54;;;;;;;21.65;10.70;;;5.10;99.90;;;;;;4934407;29;20195;-96
2024/02/27 11:30:22;;;;;;;20.73;10.48;;;5.40;99.90;;;;;;4938461;29;20054;-95
2024/02/27 11:32:49;;;;;;;18.65;10.20;;;5.10;99.90;;;;;;4953395;29;20039;-95
2024/02/27 11:35:18;;;;;;;18.63;9.60;;;5.10;99.90;;;;;;4935593;29;20063;-96
2024/02/27 11:37:48;;;;;;;19.10;9.50;;;5.20;99.90;;;;;;4938634;29;20106;-96
2024/02/27 11:40:52;;;;;;;17.88;9.13;;;5.70;99.90;;;;;;4937682;29;20051;-95
2024/02/27 11:43:20;;;;;;;17.77;9.63;;;5.20;99.90;;;;;;4925370;29;20044;-95
2024/02/27 11:45:46;;;;;;;17.58;9.95;;;6.30;99.90;;;;;;4934024;29;20085;-95
2024/02/27 11:48:53;;;;;;;18.98;10.13;;;5.90;99.90;;;;;;4938896;29;20071;-96
2024/02/27 11:51:24;;;;;;;17.10;9.25;;;5.30;99.90;;;;;;4936115;29;20506;-91
2024/02/27 11:53:51;;;;;;;20.13;10.13;;;5.90;99.90;;;;;;4939098;29;20043;-91
2024/02/27 11:56:18;;;;;;;22.65;11.02;;;5.30;99.90;;;;;;4931746;29;20056;-92
2024/02/27 11:58:44;;;;;;;23.27;11.15;;;6.50;99.90;;;;;;4952857;29;20051;-92
2024/02/27 12:01:15;;;;;;;20.48;10.35;;;5.30;99.90;;;;;;4953171;29;20047;-91
2024/02/27 12:03:46;;;;;;;18.75;9.88;;;6.00;99.90;;;;;;4937491;29;20048;-91
2024/02/27 12:06:13;;;;;;;21.60;10.43;;;6.10;99.90;;;;;;4934321;29;20044;-92
2024/02/27 12:08:48;;;;;;;21.05;10.13;;;6.10;99.90;;;;;;4937008;29;20111;-92
2024/02/27 12:11:16;;;;;;;20.25;10.05;;;5.40;99.90;;;;;;4947124;28;20493;-92
2024/02/27 12:13:49;;;;;;;21.92;10.32;;;5.70;99.90;;;;;;4937583;29;20032;-92
2024/02/27 12:16:26;;;;;;;21.95;11.60;;;6.30;99.90;;;;;;4940347;29;20036;-92
2024/02/27 12:18:56;;;;;;;21.27;10.68;;;5.40;99.90;;;;;;4942590;29;20048;-91
2024/02/27 12:21:34;;;;;;;21.15;10.93;;;5.80;99.90;;;;;;4940790;29;20048;-92
2024/02/27 12:24:15;;;;;;;22.23;11.55;;;6.10;99.90;;;;;;4935712;29;20048;-92
2024/02/27 12:26:43;;;;;;;21.42;11.35;;;5.60;99.90;;;;;;4941268;29;20050;-92
2024/02/27 12:29:10;;;;;;;19.23;10.15;;;5.60;99.90;;;;;;4945961;29;20040;-92
2024/02/27 12:31:37;;;;;;;19.27;10.50;;;6.80;99.90;;;;;;4937323;29;20048;-92
2024/02/27 12:34:08;;;;;;;20.25;10.00;;;6.10;99.90;;;;;;4930053;29;20059;-91
2024/02/27 12:36:35;;;;;;;19.77;9.95;;;6.60;99.90;;;;;;4938536;29;20044;-91
2024/02/27 12:39:02;;;;;;;18.58;9.68;;;5.70;99.90;;;;;;4940525;29;20051;-92
2024/02/27 12:41:28;;;;;;;17.70;9.93;;;5.70;99.90;;;;;;4940509;29;20035;-91
2024/02/27 12:43:55;;;;;;;18.98;10.00;;;5.70;99.90;;;;;;4938344;29;20044;-92
2024/02/27 12:46:22;;;;;;;18.40;9.02;;;5.80;99.90;;;;;;4940805;29;20043;-92
2024/02/27 12:48:49;;;;;;;17.95;9.43;;;5.80;99.90;;;;;;4938766;29;20043;-83